Time;durP1;ratioP1;P1;durP2;ratioP2;P2;SDS_P1;SDS_P2;PMS_P1;PMS_P2;Temp;Humidity;BMP_temperature;BMP_pressure;BME280_temperature;BME280_humidity;BME280_pressure;Samples;Min_cycle;Max_cycle;Signal;HPM_P1;HPM_P2
2023/04/19 00:01:00;;;;;;;0.95;0.40;;;;;;;12.28;87.22;100770.19;5015199;28;20590;-88
2023/04/19 00:03:29;;;;;;;1.00;0.52;;;;;;;12.28;86.92;100767.56;5012603;28;20041;-87
2023/04/19 00:05:58;;;;;;;1.63;0.50;;;;;;;12.29;87.29;100768.38;5005888;28;20088;-87
2023/04/19 00:08:26;;;;;;;1.40;0.47;;;;;;;12.26;87.11;100763.47;5006151;28;20061;-88
2023/04/19 00:10:52;;;;;;;1.45;0.40;;;;;;;12.24;87.40;100768.00;5017616;28;20038;-87
2023/04/19 00:13:17;;;;;;;0.70;0.30;;;;;;;12.15;87.28;100766.28;5005616;28;20034;-88
2023/04/19 00:15:42;;;;;;;1.75;0.73;;;;;;;12.17;86.81;100765.16;5014417;28;20060;-87
2023/04/19 00:18:08;;;;;;;1.50;0.50;;;;;;;12.21;86.07;100774.34;5014860;28;20037;-87
2023/04/19 00:20:33;;;;;;;2.08;0.50;;;;;;;12.23;86.31;100761.97;5014313;28;20038;-87
2023/04/19 00:22:59;;;;;;;2.15;0.50;;;;;;;12.24;86.81;100760.19;5004479;28;20069;-87
2023/04/19 00:25:24;;;;;;;1.30;0.40;;;;;;;12.33;85.81;100756.66;5009143;28;20056;-87
2023/04/19 00:27:50;;;;;;;1.50;0.43;;;;;;;12.51;83.23;100757.47;5014015;28;20033;-87
2023/04/19 00:30:15;;;;;;;2.15;0.40;;;;;;;12.63;82.85;100760.69;5019887;28;20113;-88
2023/04/19 00:32:40;;;;;;;0.90;0.40;;;;;;;12.57;83.93;100751.66;5016241;28;20037;-87
2023/04/19 00:35:06;;;;;;;1.20;0.40;;;;;;;12.48;85.35;100749.13;5019129;28;20042;-88
2023/04/19 00:37:31;;;;;;;1.55;0.50;;;;;;;12.42;86.51;100758.38;5014826;28;20036;-88
2023/04/19 00:39:57;;;;;;;1.95;0.50;;;;;;;12.37;86.13;100755.38;5011139;28;20033;-87
2023/04/19 00:42:22;;;;;;;0.98;0.35;;;;;;;12.35;87.34;100751.28;5016623;28;20399;-87
2023/04/19 00:44:48;;;;;;;1.65;0.68;;;;;;;12.30;88.07;100755.16;5009356;28;20044;-87
2023/04/19 00:47:13;;;;;;;0.85;0.30;;;;;;;12.26;89.06;100751.22;5015550;28;20062;-87
2023/04/19 00:49:39;;;;;;;1.02;0.40;;;;;;;12.20;89.60;100748.38;5021306;28;20045;-88
2023/04/19 00:52:05;;;;;;;0.98;0.30;;;;;;;12.15;89.55;100746.22;5018524;28;20125;-87
2023/04/19 00:54:32;;;;;;;0.98;0.40;;;;;;;12.11;90.91;100749.25;5008837;28;20041;-87
2023/04/19 00:56:57;;;;;;;1.42;0.50;;;;;;;12.10;90.67;100753.66;5019915;28;20116;-87
2023/04/19 00:59:24;;;;;;;1.70;0.50;;;;;;;12.11;90.71;100744.84;5014440;28;20129;-87
2023/04/19 01:01:49;;;;;;;0.75;0.40;;;;;;;12.12;90.82;100746.50;5008541;28;20056;-87
2023/04/19 01:04:15;;;;;;;1.33;0.70;;;;;;;12.07;91.44;100745.28;5005333;28;20388;-87
2023/04/19 01:06:41;;;;;;;0.75;0.40;;;;;;;12.03;91.89;100749.16;5021345;28;20099;-87
2023/04/19 01:09:08;;;;;;;0.85;0.40;;;;;;;12.01;92.06;100744.09;5002838;28;20060;-87
2023/04/19 01:11:33;;;;;;;0.88;0.40;;;;;;;11.98;92.80;100739.16;5008081;28;20479;-88
2023/04/19 01:13:59;;;;;;;2.15;0.70;;;;;;;11.96;92.53;100741.09;5009468;28;20033;-87
2023/04/19 01:16:26;;;;;;;1.45;0.73;;;;;;;11.94;93.10;100733.41;5011259;28;20053;-87
2023/04/19 01:18:52;;;;;;;1.88;0.75;;;;;;;11.96;92.93;100735.88;5004674;28;20030;-87
2023/04/19 01:21:18;;;;;;;1.55;0.65;;;;;;;11.95;92.97;100737.66;5000394;28;20042;-87
2023/04/19 01:23:44;;;;;;;2.00;0.90;;;;;;;11.95;92.79;100734.22;5009493;28;20052;-87
2023/04/19 01:26:09;;;;;;;3.65;0.98;;;;;;;11.96;93.15;100733.25;5010313;28;20519;-87
2023/04/19 01:28:35;;;;;;;2.35;1.27;;;;;;;11.98;93.63;100735.72;5008813;28;20093;-87
2023/04/19 01:31:01;;;;;;;3.75;1.50;;;;;;;11.92;92.72;100740.56;5011804;28;20038;-87
2023/04/19 01:33:28;;;;;;;9.07;4.18;;;;;;;11.91;92.00;100727.66;5003042;28;20042;-87
2023/04/19 01:35:54;;;;;;;8.30;3.28;;;;;;;11.92;92.49;100724.91;5011394;28;20036;-87
2023/04/19 01:38:20;;;;;;;8.30;2.95;;;;;;;11.91;93.27;100725.03;5002986;28;20034;-87
2023/04/19 01:40:46;;;;;;;9.15;3.58;;;;;;;11.87;94.33;100721.09;5004549;28;20038;-87
2023/04/19 01:43:13;;;;;;;9.45;4.70;;;;;;;11.82;94.79;100737.19;5015889;28;20047;-87
2023/04/19 01:45:39;;;;;;;14.60;6.70;;;;;;;11.74;94.24;100733.66;5016173;28;20030;-87
2023/04/19 01:48:05;;;;;;;13.88;6.03;;;;;;;11.73;95.00;100730.22;5012142;28;20499;-87
2023/04/19 01:50:30;;;;;;;16.75;7.40;;;;;;;11.75;95.23;100728.28;5013681;28;20453;-87
2023/04/19 01:52:57;;;;;;;13.77;6.93;;;;;;;11.72;94.32;100725.16;5016241;28;20038;-87
2023/04/19 01:55:28;;;;;;;16.10;8.00;;;;;;;11.73;94.91;100717.16;5013550;28;20029;-87
2023/04/19 01:57:54;;;;;;;15.93;7.50;;;;;;;11.74;96.51;100720.59;5019630;28;20029;-87
2023/04/19 02:00:20;;;;;;;12.82;6.13;;;;;;;11.73;97.33;100718.97;5011699;28;20065;-87
2023/04/19 02:02:46;;;;;;;13.68;5.68;;;;;;;11.72;98.10;100710.31;5013012;28;20083;-87
2023/04/19 02:05:12;;;;;;;12.88;7.03;;;;;;;11.69;98.69;100709.78;5007170;28;20030;-87
2023/04/19 02:07:37;;;;;;;19.33;6.50;;;;;;;11.66;98.99;100705.66;5025426;28;20025;-87
2023/04/19 02:10:04;;;;;;;16.17;6.88;;;;;;;11.64;100.00;100713.63;5008501;28;20143;-87
2023/04/19 02:12:31;;;;;;;15.40;6.03;;;;;;;11.63;100.00;100712.00;5003702;28;20113;-87
2023/04/19 02:14:57;;;;;;;13.82;6.05;;;;;;;11.63;100.00;100711.16;5008227;28;20462;-87
2023/04/19 02:17:25;;;;;;;12.75;7.65;;;;;;;11.62;100.00;100712.13;5010211;28;20137;-87
2023/04/19 02:19:51;;;;;;;16.45;7.53;;;;;;;11.63;100.00;100705.94;5010055;28;20483;-87
2023/04/19 02:22:17;;;;;;;14.80;7.90;;;;;;;11.62;100.00;100706.91;5000375;28;20034;-87
2023/04/19 02:24:43;;;;;;;15.68;8.60;;;;;;;11.67;99.91;100701.25;5008313;28;20033;-86
2023/04/19 02:27:08;;;;;;;14.90;7.15;;;;;;;11.69;99.68;100697.53;4998716;28;20044;-88
2023/04/19 02:29:34;;;;;;;11.52;6.13;;;;;;;11.73;99.56;100703.28;4999147;28;20029;-87
2023/04/19 02:31:59;;;;;;;10.85;5.68;;;;;;;11.73;99.58;100698.06;5003725;28;20030;-87
2023/04/19 02:34:26;;;;;;;11.82;5.97;;;;;;;11.72;99.85;100696.44;5001489;28;20088;-87
2023/04/19 02:36:52;;;;;;;11.48;5.88;;;;;;;11.72;100.00;100701.66;5012996;28;20053;-87
2023/04/19 02:39:17;;;;;;;12.60;6.28;;;;;;;11.70;100.00;100695.75;5002049;28;20076;-87
2023/04/19 02:41:43;;;;;;;12.68;6.22;;;;;;;11.69;100.00;100692.31;5000134;28;20104;-87
2023/04/19 02:44:08;;;;;;;13.35;5.70;;;;;;;11.71;100.00;100694.78;5001144;28;20046;-86
2023/04/19 02:46:34;;;;;;;8.85;5.28;;;;;;;11.66;100.00;100699.63;5006663;28;20030;-86
2023/04/19 02:49:00;;;;;;;11.15;5.15;;;;;;;11.69;100.00;100686.28;5010774;28;20113;-86
2023/04/19 02:51:25;;;;;;;9.38;4.78;;;;;;;11.67;100.00;100693.44;5007694;28;20048;-86
2023/04/19 02:53:51;;;;;;;12.30;5.63;;;;;;;11.67;100.00;100694.25;5009563;28;20029;-87
2023/04/19 02:56:17;;;;;;;9.18;5.05;;;;;;;11.67;100.00;100688.22;5010487;28;20077;-86
2023/04/19 02:58:43;;;;;;;10.20;4.20;;;;;;;11.69;100.00;100678.44;5014600;28;20034;-87
2023/04/19 03:01:09;;;;;;;9.73;4.35;;;;;;;11.68;100.00;100684.63;5010664;28;20050;-87
2023/04/19 03:03:34;;;;;;;7.60;4.70;;;;;;;11.68;100.00;100675.03;5011287;28;20037;-87
2023/04/19 03:06:00;;;;;;;10.05;4.85;;;;;;;11.67;100.00;100681.22;5007083;28;20432;-87
2023/04/19 03:08:26;;;;;;;10.18;4.35;;;;;;;11.64;100.00;100674.50;5011544;28;20112;-87
2023/04/19 03:10:52;;;;;;;9.00;4.47;;;;;;;11.60;100.00;100678.34;5005281;28;20026;-87
2023/04/19 03:13:17;;;;;;;7.13;3.83;;;;;;;11.56;100.00;100674.38;4998426;28;20515;-87
2023/04/19 03:15:43;;;;;;;7.75;3.42;;;;;;;11.59;100.00;100673.28;5004379;28;20492;-88
2023/04/19 03:18:08;;;;;;;7.53;3.80;;;;;;;11.58;100.00;100669.03;5002922;28;20026;-87
2023/04/19 03:20:34;;;;;;;9.52;4.50;;;;;;;11.57;100.00;100663.00;5009096;28;20098;-87
2023/04/19 03:22:59;;;;;;;8.35;3.58;;;;;;;11.57;100.00;100663.00;5002946;28;20124;-87
2023/04/19 03:25:25;;;;;;;7.75;3.38;;;;;;;11.59;100.00;100657.63;5006643;28;21362;-86
2023/04/19 03:27:51;;;;;;;8.80;3.70;;;;;;;11.57;100.00;100660.38;5002924;28;20034;-86
2023/04/19 03:30:17;;;;;;;7.43;3.38;;;;;;;11.54;100.00;100657.25;4992078;28;20445;-86
2023/04/19 03:32:42;;;;;;;7.22;3.35;;;;;;;11.54;100.00;100650.22;4994124;28;20034;-86
2023/04/19 03:35:08;;;;;;;9.65;3.08;;;;;;;11.56;100.00;100656.13;4995841;28;20192;-87
2023/04/19 03:37:34;;;;;;;8.43;3.60;;;;;;;11.59;100.00;100650.63;5005164;28;20025;-86
2023/04/19 03:40:00;;;;;;;5.97;3.90;;;;;;;11.59;100.00;100649.78;5000562;28;20034;-86
2023/04/19 03:42:26;;;;;;;5.95;2.97;;;;;;;11.59;100.00;100642.78;5005327;28;20564;-87
2023/04/19 03:44:51;;;;;;;7.50;3.92;;;;;;;11.60;100.00;100649.66;4995302;28;20052;-86
2023/04/19 03:47:17;;;;;;;7.53;3.53;;;;;;;11.63;100.00;100645.94;5003061;28;20038;-86
2023/04/19 03:49:43;;;;;;;7.32;2.90;;;;;;;11.67;100.00;100656.91;4997979;28;20034;-86
2023/04/19 03:52:08;;;;;;;8.35;3.25;;;;;;;11.62;100.00;100652.94;5001787;28;20053;-86
2023/04/19 03:54:34;;;;;;;7.32;2.78;;;;;;;11.59;100.00;100649.78;4999052;28;20455;-86
2023/04/19 03:57:00;;;;;;;4.82;2.42;;;;;;;11.57;100.00;100652.56;5013884;28;20042;-86
2023/04/19 03:59:26;;;;;;;4.00;2.30;;;;;;;11.55;100.00;100646.66;5014929;28;20034;-86
2023/04/19 04:01:52;;;;;;;4.78;1.98;;;;;;;11.54;100.00;100649.41;5010180;28;20093;-87
2023/04/19 04:04:17;;;;;;;7.18;3.35;;;;;;;11.51;100.00;100653.13;5017208;28;20037;-87
2023/04/19 04:06:43;;;;;;;7.18;3.00;;;;;;;11.50;100.00;100648.06;5021281;28;20498;-87
2023/04/19 04:09:09;;;;;;;5.35;3.85;;;;;;;11.49;100.00;100642.03;5012041;28;20037;-87
2023/04/19 04:11:35;;;;;;;8.18;2.78;;;;;;;11.48;100.00;100648.19;5014269;28;20049;-87
2023/04/19 04:14:03;;;;;;;4.97;1.63;;;;;;;11.45;100.00;100638.06;5035552;28;20021;-87
2023/04/19 04:16:29;;;;;;;8.48;3.88;;;;;;;11.42;100.00;100643.56;5021622;28;20033;-86
2023/04/19 04:18:54;;;;;;;4.88;1.92;;;;;;;11.45;100.00;100645.88;5034736;28;20077;-85
2023/04/19 04:21:20;;;;;;;3.17;1.85;;;;;;;11.49;100.00;100643.81;5033183;28;20815;-86
2023/04/19 04:23:46;;;;;;;4.10;1.35;;;;;;;11.48;100.00;100642.16;5025369;28;20081;-87
2023/04/19 04:26:12;;;;;;;5.85;1.20;;;;;;;11.45;100.00;100643.28;5033780;28;20053;-85
2023/04/19 04:28:38;;;;;;;5.80;0.93;;;;;;;11.50;100.00;100640.22;5030655;28;20022;-86
2023/04/19 04:31:04;;;;;;;4.95;1.00;;;;;;;11.51;99.07;100640.09;5013574;28;20076;-87
2023/04/19 04:33:30;;;;;;;3.17;0.80;;;;;;;11.56;98.48;100640.47;5010103;28;20037;-87
2023/04/19 04:35:56;;;;;;;2.78;0.73;;;;;;;11.85;91.83;100644.69;5008862;28;20510;-86
2023/04/19 04:38:22;;;;;;;1.40;0.50;;;;;;;12.12;86.91;100636.81;5013788;28;20084;-87
2023/04/19 04:40:54;;;;;;;1.35;0.40;;;;;;;12.29;87.00;100643.78;5002203;28;20038;-87
2023/04/19 04:43:24;;;;;;;1.52;0.50;;;;;;;12.19;88.94;100639.63;4997619;28;20403;-87
2023/04/19 04:45:50;;;;;;;2.72;0.65;;;;;;;12.09;91.31;100642.31;5010468;28;20084;-88
2023/04/19 04:48:16;;;;;;;1.10;0.50;;;;;;;12.00;93.56;100639.78;5013463;28;20038;-87
2023/04/19 04:50:43;;;;;;;2.80;0.63;;;;;;;11.93;94.76;100644.78;4997438;28;20057;-87
2023/04/19 04:53:08;;;;;;;1.00;0.40;;;;;;;11.89;95.55;100643.44;4999413;28;20403;-86
2023/04/19 04:55:35;;;;;;;2.08;0.70;;;;;;;11.87;96.80;100646.19;5010998;28;20029;-87
2023/04/19 04:58:00;;;;;;;4.25;0.80;;;;;;;11.84;97.92;100648.28;5013201;28;20034;-86
2023/04/19 05:00:26;;;;;;;1.90;0.52;;;;;;;11.82;98.64;100647.59;5001209;28;20026;-86
2023/04/19 05:02:53;;;;;;;1.70;0.70;;;;;;;11.83;99.83;100647.44;5010415;28;20033;-86
2023/04/19 05:05:18;;;;;;;3.92;0.63;;;;;;;11.83;99.99;100646.63;5008007;28;20092;-87
2023/04/19 05:07:44;;;;;;;2.65;0.70;;;;;;;11.84;99.98;100651.72;5009001;28;20030;-86
2023/04/19 05:10:12;;;;;;;3.08;0.75;;;;;;;11.85;99.75;100650.75;5003727;28;20038;-87
2023/04/19 05:12:38;;;;;;;2.97;0.63;;;;;;;11.85;99.79;100658.56;5003376;28;20042;-86
2023/04/19 05:15:07;;;;;;;6.13;1.15;;;;;;;11.85;99.18;100658.56;5006687;28;20042;-86
2023/04/19 05:17:32;;;;;;;2.13;0.80;;;;;;;11.84;98.24;100653.50;5012886;28;20052;-86
2023/04/19 05:19:58;;;;;;;1.60;0.75;;;;;;;11.84;97.38;100649.09;5006850;28;20476;-87
2023/04/19 05:22:24;;;;;;;1.80;0.63;;;;;;;11.89;97.10;100652.09;5008414;28;20479;-87
2023/04/19 05:24:50;;;;;;;5.93;1.88;;;;;;;11.95;96.48;100651.50;5011593;28;20491;-87
2023/04/19 05:27:15;;;;;;;3.42;2.38;;;;;;;12.01;96.00;100650.09;5003730;28;20092;-87
2023/04/19 05:29:41;;;;;;;6.68;1.70;;;;;;;12.07;94.50;100646.88;5006278;28;20037;-87
2023/04/19 05:32:06;;;;;;;4.55;1.40;;;;;;;12.13;95.68;100651.50;5019560;28;20038;-86
2023/04/19 05:34:32;;;;;;;3.83;1.67;;;;;;;12.09;95.91;100646.72;5027200;28;20052;-88
2023/04/19 05:36:58;;;;;;;11.20;3.13;;;;;;;12.10;95.88;100654.41;5024159;28;20120;-85
2023/04/19 05:39:24;;;;;;;6.28;1.38;;;;;;;12.13;95.16;100648.91;5020034;28;20049;-85
2023/04/19 05:41:49;;;;;;;8.45;1.65;;;;;;;12.15;95.26;100656.59;5022652;28;20037;-86
2023/04/19 05:44:15;;;;;;;3.63;1.35;;;;;;;12.17;95.66;100646.81;5016590;28;20067;-87
2023/04/19 05:46:40;;;;;;;3.60;0.75;;;;;;;12.21;95.99;100651.59;5009445;28;20087;-87
2023/04/19 05:49:05;;;;;;;3.53;0.77;;;;;;;12.08;95.14;100645.91;5009138;28;20437;-88
2023/04/19 05:51:31;;;;;;;2.10;0.60;;;;;;;12.04;95.35;100655.00;5012512;28;20040;-87
2023/04/19 05:53:56;;;;;;;2.53;0.70;;;;;;;12.04;93.81;100651.56;5007137;28;20399;-87
2023/04/19 05:56:22;;;;;;;2.22;0.43;;;;;;;12.05;92.94;100659.25;5004229;28;20038;-86
2023/04/19 05:58:47;;;;;;;3.92;0.47;;;;;;;12.15;93.24;100656.59;5011399;28;20038;-86
2023/04/19 06:01:13;;;;;;;2.75;0.70;;;;;;;12.25;94.72;100652.94;5010881;28;20030;-87
2023/04/19 06:03:38;;;;;;;7.10;0.80;;;;;;;12.33;95.99;100654.75;5003428;28;20143;-88
2023/04/19 06:06:04;;;;;;;1.60;0.60;;;;;;;12.37;96.68;100657.88;5007423;28;20044;-87
2023/04/19 06:08:29;;;;;;;2.47;0.50;;;;;;;12.36;95.54;100653.63;5012571;28;20032;-87
2023/04/19 06:10:55;;;;;;;2.13;0.60;;;;;;;12.42;96.14;100655.66;5002688;28;20022;-87
2023/04/19 06:13:21;;;;;;;2.60;0.82;;;;;;;12.44;96.79;100662.38;5009153;28;20053;-87
2023/04/19 06:15:47;;;;;;;4.63;1.08;;;;;;;12.34;94.93;100661.63;5000323;28;20033;-88
2023/04/19 06:18:13;;;;;;;1.83;0.85;;;;;;;12.44;94.90;100661.53;5010972;28;20035;-89
2023/04/19 06:20:39;;;;;;;2.72;1.08;;;;;;;12.52;95.29;100654.59;5012121;28;20438;-89
2023/04/19 06:23:07;;;;;;;3.65;0.90;;;;;;;12.58;96.36;100656.59;5014860;28;20053;-88
2023/04/19 06:25:33;;;;;;;5.25;1.60;;;;;;;12.65;96.61;100658.59;5013614;28;20025;-89
2023/04/19 06:27:58;;;;;;;2.92;1.17;;;;;;;12.63;95.80;100662.19;5015513;28;20036;-88
2023/04/19 06:30:24;;;;;;;7.30;1.60;;;;;;;12.60;94.71;100659.06;5018683;28;20041;-88
2023/04/19 06:32:52;;;;;;;3.38;0.80;;;;;;;12.60;94.86;100653.81;5009024;28;20396;-87
2023/04/19 06:35:17;;;;;;;2.45;1.02;;;;;;;12.52;93.46;100651.16;5010290;28;20065;-87
2023/04/19 06:37:45;;;;;;;3.88;0.47;;;;;;;12.48;93.17;100658.47;5009920;28;20086;-86
2023/04/19 06:40:11;;;;;;;4.78;0.73;;;;;;;12.45;92.80;100656.16;5012880;28;20113;-86
2023/04/19 06:42:37;;;;;;;9.82;1.10;;;;;;;12.49;91.64;100656.69;5005546;28;20040;-86
2023/04/19 06:45:02;;;;;;;2.35;1.20;;;;;;;12.57;91.59;100660.19;5010526;28;20042;-86
2023/04/19 06:47:29;;;;;;;8.82;1.85;;;;;;;12.48;90.34;100657.66;5008998;28;20450;-86
2023/04/19 06:49:55;;;;;;;8.75;1.35;;;;;;;12.48;89.79;100650.63;5002513;28;20065;-87
2023/04/19 06:52:21;;;;;;;7.47;1.27;;;;;;;12.52;88.71;100653.75;5005029;28;20064;-87
2023/04/19 06:54:49;;;;;;;13.55;2.05;;;;;;;12.59;87.52;100646.97;5016150;28;20056;-87
2023/04/19 06:57:15;;;;;;;8.73;1.52;;;;;;;12.66;87.25;100650.59;5018703;28;20163;-87
2023/04/19 06:59:41;;;;;;;9.10;1.40;;;;;;;12.80;87.02;100647.41;5007648;28;20061;-87
2023/04/19 07:02:06;;;;;;;7.60;1.60;;;;;;;12.99;86.95;100651.59;5009895;28;20126;-87
2023/04/19 07:04:32;;;;;;;7.85;1.70;;;;;;;13.23;84.78;100654.34;5005726;28;20025;-87
2023/04/19 07:06:58;;;;;;;10.00;1.27;;;;;;;13.44;83.55;100642.66;5006161;28;20037;-87
2023/04/19 07:09:23;;;;;;;4.57;1.45;;;;;;;13.61;81.97;100646.97;5011431;28;20030;-87
2023/04/19 07:11:50;;;;;;;6.40;1.58;;;;;;;13.85;81.72;100648.81;5010103;28;20450;-87
2023/04/19 07:14:18;;;;;;;9.63;1.35;;;;;;;14.00;79.36;100641.16;5003758;28;20030;-87
2023/04/19 07:16:44;;;;;;;5.97;0.90;;;;;;;14.22;78.21;100643.94;5003998;28;20026;-87
2023/04/19 07:19:10;;;;;;;3.83;0.65;;;;;;;14.39;76.52;100634.28;5004374;28;20034;-87
2023/04/19 07:21:37;;;;;;;4.55;1.23;;;;;;;14.29;74.99;100637.06;5005903;28;20037;-86
2023/04/19 07:24:03;;;;;;;2.15;0.52;;;;;;;14.33;74.26;100637.53;5014893;28;20494;-86
2023/04/19 07:26:28;;;;;;;4.65;0.43;;;;;;;14.51;73.92;100632.16;5021423;28;20029;-87
2023/04/19 07:28:54;;;;;;;3.97;0.68;;;;;;;14.70;73.96;100633.59;5012835;28;20029;-85
2023/04/19 07:31:20;;;;;;;2.38;0.47;;;;;;;14.71;73.12;100630.81;5005126;28;20041;-86
2023/04/19 07:33:45;;;;;;;3.05;0.85;;;;;;;14.95;73.76;100627.31;5012244;28;20076;-87
2023/04/19 07:36:11;;;;;;;1.35;0.38;;;;;;;15.40;72.69;100626.63;5004271;28;20034;-86
2023/04/19 07:38:36;;;;;;;2.95;0.43;;;;;;;15.54;71.84;100625.09;5021118;28;20030;-86
2023/04/19 07:41:04;;;;;;;1.77;0.50;;;;;;;15.38;71.46;100623.34;5029012;28;20041;-87
2023/04/19 07:43:29;;;;;;;1.25;0.35;;;;;;;15.35;71.00;100621.06;5025192;28;20117;-86
2023/04/19 07:45:57;;;;;;;2.78;0.20;;;;;;;15.22;69.77;100621.63;5011106;28;20383;-87
2023/04/19 07:48:22;;;;;;;3.78;0.30;;;;;;;15.21;69.67;100616.53;5019549;28;20452;-86
2023/04/19 07:50:48;;;;;;;3.13;0.20;;;;;;;15.21;68.99;100617.34;5009153;28;20080;-87
2023/04/19 07:53:13;;;;;;;2.53;0.20;;;;;;;15.52;68.87;100616.56;5006049;28;20031;-87
2023/04/19 07:55:39;;;;;;;2.22;0.32;;;;;;;16.27;67.28;100622.78;5010923;28;20033;-86
2023/04/19 07:58:04;;;;;;;2.75;0.30;;;;;;;16.92;64.39;100623.97;5011681;28;20046;-87
2023/04/19 08:00:30;;;;;;;1.65;0.20;;;;;;;17.20;62.97;100618.84;5009900;28;20026;-87
2023/04/19 08:02:56;;;;;;;1.35;0.10;;;;;;;17.24;63.21;100615.66;5011292;28;20041;-87
2023/04/19 08:05:22;;;;;;;0.50;0.20;;;;;;;17.24;62.75;100612.22;4999341;28;20033;-87
2023/04/19 08:07:50;;;;;;;0.30;0.10;;;;;;;16.98;63.02;100620.63;5005835;28;20044;-87
2023/04/19 08:10:17;;;;;;;0.68;0.20;;;;;;;16.95;63.04;100602.56;5004592;28;20058;-87
2023/04/19 08:12:42;;;;;;;6.05;0.20;;;;;;;16.86;62.75;100617.63;5001584;28;20057;-87
2023/04/19 08:15:08;;;;;;;1.33;0.20;;;;;;;17.17;61.99;100606.06;5005068;28;20123;-87
2023/04/19 08:17:34;;;;;;;0.93;0.43;;;;;;;17.41;62.60;100605.75;4999355;28;20034;-87
2023/04/19 08:19:59;;;;;;;0.50;0.20;;;;;;;17.54;62.94;100605.88;4998323;28;20811;-87
2023/04/19 08:22:25;;;;;;;0.75;0.20;;;;;;;17.54;61.61;100597.97;5002433;28;23926;-87
2023/04/19 08:24:50;;;;;;;0.35;0.10;;;;;;;17.63;61.48;100596.03;5014288;28;20030;-87
2023/04/19 08:27:17;;;;;;;0.77;0.20;;;;;;;17.72;60.78;100596.78;4996495;28;20117;-87
2023/04/19 08:29:42;;;;;;;0.70;0.28;;;;;;;17.85;61.12;100595.09;5011531;28;20453;-87
2023/04/19 08:32:08;;;;;;;1.48;0.30;;;;;;;17.98;61.60;100593.56;5015208;28;20030;-86
2023/04/19 08:34:37;;;;;;;1.00;0.20;;;;;;;17.90;61.48;100592.69;5003961;28;20034;-86
2023/04/19 08:37:03;;;;;;;0.60;0.20;;;;;;;17.74;60.97;100592.94;5011918;28;20091;-87
2023/04/19 08:39:32;;;;;;;0.50;0.20;;;;;;;17.83;60.40;100594.47;5010756;28;20034;-87
2023/04/19 08:42:06;;;;;;;0.90;0.20;;;;;;;17.86;59.30;100582.72;5009625;28;20049;-87
2023/04/19 08:44:37;;;;;;;1.48;0.20;;;;;;;17.84;60.23;100584.72;5003855;28;20060;-86
2023/04/19 08:47:03;;;;;;;0.90;0.20;;;;;;;17.95;60.64;100578.16;5004941;28;20037;-87
2023/04/19 08:49:29;;;;;;;1.13;0.30;;;;;;;18.00;60.34;100576.53;5018854;28;20621;-87
2023/04/19 08:52:02;;;;;;;3.40;0.20;;;;;;;18.18;60.18;100576.09;5006563;28;20069;-84
2023/04/19 08:54:31;;;;;;;0.82;0.13;;;;;;;18.33;60.87;100570.72;5012104;28;20041;-85
2023/04/19 08:57:02;;;;;;;2.35;0.30;;;;;;;18.34;59.78;100573.16;5004376;28;20031;-85
2023/04/19 08:59:29;;;;;;;2.30;0.20;;;;;;;18.41;59.96;100573.22;5009870;28;20026;-85
2023/04/19 09:01:57;;;;;;;1.02;0.30;;;;;;;18.54;60.01;100565.38;5009856;28;20037;-84
2023/04/19 09:04:24;;;;;;;0.70;0.30;;;;;;;18.66;58.75;100561.22;5011142;28;20092;-85
2023/04/19 09:06:50;;;;;;;1.65;0.38;;;;;;;18.70;58.52;100557.19;5009801;28;20029;-86
2023/04/19 09:09:21;;;;;;;1.58;0.45;;;;;;;18.84;57.43;100548.31;5009224;28;20089;-86
2023/04/19 09:11:47;;;;;;;1.55;0.30;;;;;;;18.80;57.57;100552.38;5008265;28;20038;-86
2023/04/19 09:14:18;;;;;;;4.50;0.40;;;;;;;19.08;56.41;100546.16;5011427;28;20041;-85
2023/04/19 09:16:44;;;;;;;3.08;0.40;;;;;;;19.02;56.43;100541.66;5004894;28;20080;-86
2023/04/19 09:19:13;;;;;;;3.15;0.30;;;;;;;19.04;57.09;100544.94;5023286;28;20508;-86
2023/04/19 09:21:39;;;;;;;0.82;0.20;;;;;;;19.15;57.01;100547.81;5007234;28;20044;-86
2023/04/19 09:24:05;;;;;;;1.40;0.20;;;;;;;18.69;56.32;100539.72;5009828;28;20041;-86
2023/04/19 09:26:31;;;;;;;1.45;0.20;;;;;;;18.47;56.41;100538.13;5008422;28;20033;-86
2023/04/19 09:29:06;;;;;;;1.50;0.30;;;;;;;18.46;56.19;100533.84;5022748;28;20395;-87
2023/04/19 09:31:37;;;;;;;0.95;0.28;;;;;;;18.43;57.33;100531.63;5010050;28;20036;-87
2023/04/19 09:34:14;;;;;;;1.25;0.75;;;;;;;18.44;55.10;100522.69;5017450;28;20136;-86
2023/04/19 09:36:40;;;;;;;0.55;0.10;;;;;;;18.39;55.32;100525.13;5005285;28;20061;-87
2023/04/19 09:39:06;;;;;;;1.08;0.20;;;;;;;18.51;55.86;100526.19;5018201;28;20068;-87
2023/04/19 09:41:32;;;;;;;2.25;0.20;;;;;;;18.49;56.73;100520.28;5027486;28;20025;-86
2023/04/19 09:44:11;;;;;;;0.90;0.20;;;;;;;18.37;52.89;100520.03;5019612;28;20056;-85
2023/04/19 09:46:37;;;;;;;1.23;0.30;;;;;;;18.31;55.88;100510.25;5001710;28;20033;-85
2023/04/19 09:49:25;;;;;;;1.38;0.20;;;;;;;18.63;56.20;100508.81;5017433;28;20468;-87
2023/04/19 09:51:55;;;;;;;2.72;0.40;;;;;;;18.83;56.30;100509.72;5003389;28;21138;-87
2023/04/19 09:54:28;;;;;;;5.18;0.30;;;;;;;18.96;56.25;100505.50;5021234;28;20053;-86
2023/04/19 09:56:54;;;;;;;2.42;0.10;;;;;;;19.05;57.27;100507.75;5025267;28;20033;-86
2023/04/19 09:59:20;;;;;;;1.75;0.28;;;;;;;19.03;55.52;100501.06;5020248;28;20781;-86
2023/04/19 10:01:50;;;;;;;0.40;0.20;;;;;;;19.07;55.91;100497.00;5010439;28;20045;-86
2023/04/19 10:04:21;;;;;;;1.65;0.20;;;;;;;18.99;55.67;100499.81;5014889;28;20107;-86
2023/04/19 10:06:48;;;;;;;0.82;0.28;;;;;;;18.89;56.01;100498.38;5005299;28;20038;-86
2023/04/19 10:09:14;;;;;;;1.05;0.20;;;;;;;18.54;55.02;100491.50;5010092;28;20111;-85
2023/04/19 10:11:42;;;;;;;0.40;0.20;;;;;;;18.51;55.71;100491.88;5004020;28;20507;-86
2023/04/19 10:14:09;;;;;;;2.45;0.20;;;;;;;18.64;55.31;100499.09;5015905;28;20026;-86
2023/04/19 10:16:36;;;;;;;1.45;0.30;;;;;;;18.69;54.83;100492.22;5001031;28;20399;-85
2023/04/19 10:19:08;;;;;;;0.63;0.15;;;;;;;18.42;52.90;100493.06;5009056;28;20108;-85
2023/04/19 10:21:34;;;;;;;0.50;0.20;;;;;;;18.07;54.61;100482.50;5004644;28;20026;-86
2023/04/19 10:24:00;;;;;;;2.05;0.20;;;;;;;18.15;54.74;100489.44;5002496;28;20075;-85
2023/04/19 10:26:26;;;;;;;2.13;0.40;;;;;;;18.46;55.87;100484.56;5007875;28;20033;-86
2023/04/19 10:28:55;;;;;;;0.90;0.30;;;;;;;18.68;55.38;100479.22;5005436;28;20037;-86
2023/04/19 10:31:22;;;;;;;0.80;0.30;;;;;;;18.73;55.15;100477.63;5000905;28;20065;-86
2023/04/19 10:33:48;;;;;;;0.60;0.20;;;;;;;18.22;56.05;100471.84;5008154;28;20546;-85
2023/04/19 10:36:16;;;;;;;0.63;0.20;;;;;;;18.18;57.12;100468.78;5003242;28;20061;-86
2023/04/19 10:38:52;;;;;;;0.40;0.20;;;;;;;18.15;53.65;100458.63;5008821;28;20060;-86
2023/04/19 10:41:20;;;;;;;1.23;0.30;;;;;;;17.99;55.40;100464.19;5008388;28;20034;-86
2023/04/19 10:44:07;;;;;;;0.85;0.30;;;;;;;17.89;54.69;100448.75;5005344;28;20126;-85
2023/04/19 10:46:34;;;;;;;1.38;0.13;;;;;;;17.66;53.96;100444.72;5005166;28;20116;-85
2023/04/19 10:49:01;;;;;;;0.60;0.20;;;;;;;17.74;54.34;100444.56;4997159;28;20050;-85
2023/04/19 10:51:28;;;;;;;0.68;0.30;;;;;;;17.76;53.54;100432.84;5008093;28;20495;-85
2023/04/19 10:53:58;;;;;;;0.30;0.20;;;;;;;17.74;53.29;100426.13;5008052;28;20491;-86
2023/04/19 10:56:35;;;;;;;0.30;0.20;;;;;;;17.46;53.53;100426.91;5005803;28;20033;-86
2023/04/19 10:59:01;;;;;;;3.63;0.30;;;;;;;17.42;54.27;100428.28;5011448;28;20065;-86
2023/04/19 11:01:38;;;;;;;3.47;0.40;;;;;;;17.47;51.55;100423.28;5006684;28;20053;-85
2023/04/19 11:04:07;;;;;;;3.05;0.20;;;;;;;17.63;53.72;100413.44;5001702;28;20041;-86
2023/04/19 11:06:33;;;;;;;0.98;0.20;;;;;;;17.68;53.98;100408.44;5006301;28;20029;-86
2023/04/19 11:09:01;;;;;;;1.45;0.28;;;;;;;17.92;54.08;100400.09;5011955;28;20457;-86
2023/04/19 11:11:27;;;;;;;2.33;0.30;;;;;;;17.99;54.21;100405.38;5030613;28;20029;-86
2023/04/19 11:13:56;;;;;;;0.60;0.20;;;;;;;18.29;54.02;100403.31;5008235;28;20165;-86
2023/04/19 11:16:22;;;;;;;0.73;0.30;;;;;;;18.25;54.10;100405.53;5008994;28;20030;-86
2023/04/19 11:18:47;;;;;;;1.42;0.30;;;;;;;18.41;56.06;100391.22;5001350;28;20062;-86